sensor_id;sensor_type;location;lat;lon;timestamp;P1;durP1;ratioP1;P2;durP2;ratioP2
73158;SDS011;61370;48.594;10.202;2022-11-20T00:01:14;5.35;;;2.90;;
73158;SDS011;61370;48.594;10.202;2022-11-20T00:03:42;6.07;;;3.03;;
73158;SDS011;61370;48.594;10.202;2022-11-20T00:06:09;7.70;;;3.20;;
73158;SDS011;61370;48.594;10.202;2022-11-20T00:08:38;6.72;;;3.25;;
73158;SDS011;61370;48.594;10.202;2022-11-20T00:11:05;6.72;;;3.67;;
73158;SDS011;61370;48.594;10.202;2022-11-20T00:13:42;6.50;;;3.60;;
73158;SDS011;61370;48.594;10.202;2022-11-20T00:16:09;8.10;;;3.50;;
73158;SDS011;61370;48.594;10.202;2022-11-20T00:18:37;8.52;;;3.15;;
73158;SDS011;61370;48.594;10.202;2022-11-20T00:21:05;8.05;;;3.40;;
73158;SDS011;61370;48.594;10.202;2022-11-20T00:23:33;6.70;;;3.05;;
73158;SDS011;61370;48.594;10.202;2022-11-20T00:26:06;6.65;;;3.40;;
73158;SDS011;61370;48.594;10.202;2022-11-20T00:28:37;6.43;;;2.97;;
73158;SDS011;61370;48.594;10.202;2022-11-20T00:31:04;6.78;;;3.42;;
73158;SDS011;61370;48.594;10.202;2022-11-20T00:33:42;7.13;;;3.58;;
73158;SDS011;61370;48.594;10.202;2022-11-20T00:36:13;6.68;;;3.65;;
73158;SDS011;61370;48.594;10.202;2022-11-20T00:38:40;8.50;;;4.20;;
73158;SDS011;61370;48.594;10.202;2022-11-20T00:41:08;11.07;;;5.20;;
73158;SDS011;61370;48.594;10.202;2022-11-20T00:43:38;12.50;;;4.65;;
73158;SDS011;61370;48.594;10.202;2022-11-20T00:46:10;10.65;;;4.53;;
73158;SDS011;61370;48.594;10.202;2022-11-20T00:48:43;9.27;;;4.97;;
73158;SDS011;61370;48.594;10.202;2022-11-20T00:51:11;11.93;;;4.82;;
73158;SDS011;61370;48.594;10.202;2022-11-20T00:53:41;13.10;;;5.70;;
73158;SDS011;61370;48.594;10.202;2022-11-20T00:56:09;10.32;;;5.85;;
73158;SDS011;61370;48.594;10.202;2022-11-20T00:58:38;8.40;;;4.80;;
73158;SDS011;61370;48.594;10.202;2022-11-20T01:01:11;7.85;;;4.25;;
73158;SDS011;61370;48.594;10.202;2022-11-20T01:03:40;9.63;;;4.60;;
73158;SDS011;61370;48.594;10.202;2022-11-20T01:06:12;7.88;;;3.85;;
73158;SDS011;61370;48.594;10.202;2022-11-20T01:08:45;8.27;;;3.70;;
73158;SDS011;61370;48.594;10.202;2022-11-20T01:11:22;10.00;;;3.80;;
73158;SDS011;61370;48.594;10.202;2022-11-20T01:13:51;6.78;;;3.30;;
73158;SDS011;61370;48.594;10.202;2022-11-20T01:16:28;8.00;;;3.60;;
73158;SDS011;61370;48.594;10.202;2022-11-20T01:19:04;7.82;;;3.80;;
73158;SDS011;61370;48.594;10.202;2022-11-20T01:21:32;7.88;;;3.47;;
73158;SDS011;61370;48.594;10.202;2022-11-20T01:24:04;6.63;;;3.38;;
73158;SDS011;61370;48.594;10.202;2022-11-20T01:26:33;6.40;;;3.58;;
73158;SDS011;61370;48.594;10.202;2022-11-20T01:29:02;6.82;;;3.33;;
73158;SDS011;61370;48.594;10.202;2022-11-20T01:31:30;7.78;;;3.33;;
73158;SDS011;61370;48.594;10.202;2022-11-20T01:33:59;7.45;;;3.53;;
73158;SDS011;61370;48.594;10.202;2022-11-20T01:36:29;9.25;;;4.18;;
73158;SDS011;61370;48.594;10.202;2022-11-20T01:38:58;6.75;;;3.35;;
73158;SDS011;61370;48.594;10.202;2022-11-20T01:41:26;7.43;;;3.22;;
73158;SDS011;61370;48.594;10.202;2022-11-20T01:44:15;7.47;;;3.33;;
73158;SDS011;61370;48.594;10.202;2022-11-20T01:47:04;7.15;;;3.15;;
73158;SDS011;61370;48.594;10.202;2022-11-20T01:52:16;8.52;;;3.60;;
73158;SDS011;61370;48.594;10.202;2022-11-20T01:54:48;8.23;;;3.97;;
73158;SDS011;61370;48.594;10.202;2022-11-20T01:57:18;11.10;;;4.38;;
73158;SDS011;61370;48.594;10.202;2022-11-20T01:59:48;10.63;;;5.40;;
73158;SDS011;61370;48.594;10.202;2022-11-20T02:02:20;12.38;;;5.80;;
73158;SDS011;61370;48.594;10.202;2022-11-20T02:04:47;9.63;;;5.60;;
73158;SDS011;61370;48.594;10.202;2022-11-20T02:07:15;7.85;;;4.15;;
73158;SDS011;61370;48.594;10.202;2022-11-20T02:09:42;8.43;;;4.97;;
73158;SDS011;61370;48.594;10.202;2022-11-20T02:12:08;10.32;;;4.80;;
73158;SDS011;61370;48.594;10.202;2022-11-20T02:14:55;10.20;;;3.95;;
73158;SDS011;61370;48.594;10.202;2022-11-20T02:17:23;7.13;;;3.97;;
73158;SDS011;61370;48.594;10.202;2022-11-20T02:19:50;8.82;;;3.72;;
73158;SDS011;61370;48.594;10.202;2022-11-20T02:22:19;6.47;;;3.15;;
73158;SDS011;61370;48.594;10.202;2022-11-20T02:24:49;8.27;;;3.55;;
73158;SDS011;61370;48.594;10.202;2022-11-20T02:27:17;6.45;;;3.40;;
73158;SDS011;61370;48.594;10.202;2022-11-20T02:29:54;8.57;;;3.67;;
73158;SDS011;61370;48.594;10.202;2022-11-20T02:32:25;7.05;;;3.70;;
73158;SDS011;61370;48.594;10.202;2022-11-20T02:40:19;6.70;;;3.25;;
73158;SDS011;61370;48.594;10.202;2022-11-20T02:42:46;6.70;;;3.13;;
73158;SDS011;61370;48.594;10.202;2022-11-20T02:45:12;6.70;;;3.60;;
73158;SDS011;61370;48.594;10.202;2022-11-20T02:47:39;6.63;;;3.25;;
73158;SDS011;61370;48.594;10.202;2022-11-20T02:50:06;6.88;;;3.60;;
73158;SDS011;61370;48.594;10.202;2022-11-20T02:52:32;7.80;;;3.45;;
73158;SDS011;61370;48.594;10.202;2022-11-20T02:54:59;8.52;;;3.90;;
73158;SDS011;61370;48.594;10.202;2022-11-20T02:57:26;7.53;;;3.53;;
73158;SDS011;61370;48.594;10.202;2022-11-20T02:59:53;5.55;;;3.10;;
73158;SDS011;61370;48.594;10.202;2022-11-20T03:02:19;7.40;;;3.53;;
73158;SDS011;61370;48.594;10.202;2022-11-20T03:04:46;7.30;;;3.60;;
73158;SDS011;61370;48.594;10.202;2022-11-20T03:07:13;6.45;;;3.40;;
73158;SDS011;61370;48.594;10.202;2022-11-20T03:09:39;5.18;;;2.95;;
73158;SDS011;61370;48.594;10.202;2022-11-20T03:12:06;8.48;;;2.80;;
73158;SDS011;61370;48.594;10.202;2022-11-20T03:14:33;6.15;;;3.63;;
73158;SDS011;61370;48.594;10.202;2022-11-20T03:17:00;6.53;;;2.97;;
73158;SDS011;61370;48.594;10.202;2022-11-20T03:19:27;5.65;;;2.90;;
73158;SDS011;61370;48.594;10.202;2022-11-20T03:21:53;5.03;;;2.70;;
73158;SDS011;61370;48.594;10.202;2022-11-20T03:24:20;6.13;;;3.30;;
73158;SDS011;61370;48.594;10.202;2022-11-20T03:26:46;6.20;;;3.10;;
73158;SDS011;61370;48.594;10.202;2022-11-20T03:29:13;5.20;;;2.72;;
73158;SDS011;61370;48.594;10.202;2022-11-20T03:31:39;6.05;;;3.03;;
73158;SDS011;61370;48.594;10.202;2022-11-20T03:34:07;5.38;;;2.85;;
73158;SDS011;61370;48.594;10.202;2022-11-20T03:36:34;7.20;;;3.03;;
73158;SDS011;61370;48.594;10.202;2022-11-20T03:39:01;6.43;;;2.90;;
73158;SDS011;61370;48.594;10.202;2022-11-20T03:41:28;6.65;;;3.17;;
73158;SDS011;61370;48.594;10.202;2022-11-20T03:43:59;5.90;;;2.50;;
73158;SDS011;61370;48.594;10.202;2022-11-20T03:46:27;5.32;;;2.53;;
73158;SDS011;61370;48.594;10.202;2022-11-20T03:48:55;6.63;;;2.97;;
73158;SDS011;61370;48.594;10.202;2022-11-20T03:51:22;6.38;;;2.65;;
73158;SDS011;61370;48.594;10.202;2022-11-20T03:53:54;5.68;;;2.90;;
73158;SDS011;61370;48.594;10.202;2022-11-20T03:56:23;7.15;;;2.53;;
73158;SDS011;61370;48.594;10.202;2022-11-20T03:58:51;7.05;;;3.13;;
73158;SDS011;61370;48.594;10.202;2022-11-20T04:01:19;5.70;;;2.92;;
73158;SDS011;61370;48.594;10.202;2022-11-20T04:03:47;5.18;;;2.78;;
73158;SDS011;61370;48.594;10.202;2022-11-20T04:06:15;6.55;;;2.83;;
73158;SDS011;61370;48.594;10.202;2022-11-20T04:08:46;5.78;;;2.80;;
73158;SDS011;61370;48.594;10.202;2022-11-20T04:13:48;6.75;;;2.88;;
73158;SDS011;61370;48.594;10.202;2022-11-20T04:16:15;5.70;;;2.78;;
73158;SDS011;61370;48.594;10.202;2022-11-20T04:18:42;5.05;;;2.63;;
73158;SDS011;61370;48.594;10.202;2022-11-20T04:21:09;6.57;;;2.83;;
73158;SDS011;61370;48.594;10.202;2022-11-20T04:23:36;7.60;;;2.92;;
73158;SDS011;61370;48.594;10.202;2022-11-20T04:26:04;7.07;;;3.30;;
73158;SDS011;61370;48.594;10.202;2022-11-20T04:28:32;6.55;;;3.22;;
73158;SDS011;61370;48.594;10.202;2022-11-20T04:31:02;6.18;;;2.35;;
73158;SDS011;61370;48.594;10.202;2022-11-20T04:33:30;6.35;;;2.90;;
73158;SDS011;61370;48.594;10.202;2022-11-20T04:35:59;7.50;;;3.15;;
73158;SDS011;61370;48.594;10.202;2022-11-20T04:38:27;5.88;;;2.92;;
73158;SDS011;61370;48.594;10.202;2022-11-20T04:40:57;5.82;;;3.05;;
73158;SDS011;61370;48.594;10.202;2022-11-20T04:43:29;6.47;;;3.03;;
73158;SDS011;61370;48.594;10.202;2022-11-20T04:45:56;6.32;;;2.80;;
73158;SDS011;61370;48.594;10.202;2022-11-20T04:48:24;5.38;;;2.63;;
73158;SDS011;61370;48.594;10.202;2022-11-20T04:50:51;6.53;;;3.08;;
73158;SDS011;61370;48.594;10.202;2022-11-20T04:53:18;6.90;;;3.17;;
73158;SDS011;61370;48.594;10.202;2022-11-20T04:55:44;5.22;;;2.70;;
73158;SDS011;61370;48.594;10.202;2022-11-20T04:58:12;5.82;;;2.65;;
73158;SDS011;61370;48.594;10.202;2022-11-20T05:00:39;5.22;;;2.53;;
73158;SDS011;61370;48.594;10.202;2022-11-20T05:03:05;5.82;;;2.90;;
73158;SDS011;61370;48.594;10.202;2022-11-20T05:05:33;5.35;;;2.47;;
73158;SDS011;61370;48.594;10.202;2022-11-20T05:08:00;7.18;;;3.35;;
73158;SDS011;61370;48.594;10.202;2022-11-20T05:10:26;6.53;;;2.67;;
73158;SDS011;61370;48.594;10.202;2022-11-20T05:12:53;8.43;;;2.63;;
73158;SDS011;61370;48.594;10.202;2022-11-20T05:15:20;6.85;;;2.72;;
73158;SDS011;61370;48.594;10.202;2022-11-20T05:17:49;5.45;;;2.60;;
73158;SDS011;61370;48.594;10.202;2022-11-20T05:20:17;4.82;;;2.50;;
73158;SDS011;61370;48.594;10.202;2022-11-20T05:22:44;6.07;;;2.60;;
73158;SDS011;61370;48.594;10.202;2022-11-20T05:25:11;6.25;;;2.45;;
73158;SDS011;61370;48.594;10.202;2022-11-20T05:27:37;5.28;;;2.40;;
73158;SDS011;61370;48.594;10.202;2022-11-20T05:30:04;5.32;;;2.80;;
73158;SDS011;61370;48.594;10.202;2022-11-20T05:32:31;6.88;;;2.63;;
73158;SDS011;61370;48.594;10.202;2022-11-20T05:34:57;5.32;;;2.65;;
73158;SDS011;61370;48.594;10.202;2022-11-20T05:37:24;6.57;;;3.10;;
73158;SDS011;61370;48.594;10.202;2022-11-20T05:39:50;6.00;;;2.65;;
73158;SDS011;61370;48.594;10.202;2022-11-20T05:42:17;4.57;;;2.65;;
73158;SDS011;61370;48.594;10.202;2022-11-20T05:45:03;5.25;;;2.58;;
73158;SDS011;61370;48.594;10.202;2022-11-20T05:47:32;6.80;;;2.85;;
73158;SDS011;61370;48.594;10.202;2022-11-20T05:49:59;6.53;;;2.60;;
73158;SDS011;61370;48.594;10.202;2022-11-20T05:52:29;5.35;;;2.53;;
73158;SDS011;61370;48.594;10.202;2022-11-20T05:54:56;7.38;;;2.90;;
73158;SDS011;61370;48.594;10.202;2022-11-20T05:57:22;5.15;;;2.65;;
73158;SDS011;61370;48.594;10.202;2022-11-20T05:59:49;8.15;;;3.45;;
73158;SDS011;61370;48.594;10.202;2022-11-20T06:02:16;7.32;;;2.90;;
73158;SDS011;61370;48.594;10.202;2022-11-20T06:04:44;8.30;;;3.70;;
73158;SDS011;61370;48.594;10.202;2022-11-20T06:07:11;8.05;;;2.90;;
73158;SDS011;61370;48.594;10.202;2022-11-20T06:09:37;7.18;;;3.53;;
73158;SDS011;61370;48.594;10.202;2022-11-20T06:12:04;5.47;;;2.90;;
73158;SDS011;61370;48.594;10.202;2022-11-20T06:14:31;6.53;;;3.20;;
73158;SDS011;61370;48.594;10.202;2022-11-20T06:16:57;6.50;;;2.90;;
73158;SDS011;61370;48.594;10.202;2022-11-20T06:19:24;6.00;;;3.00;;
73158;SDS011;61370;48.594;10.202;2022-11-20T06:21:50;5.75;;;3.25;;
73158;SDS011;61370;48.594;10.202;2022-11-20T06:24:17;6.40;;;3.20;;
73158;SDS011;61370;48.594;10.202;2022-11-20T06:26:43;8.35;;;3.17;;
73158;SDS011;61370;48.594;10.202;2022-11-20T06:29:10;4.35;;;2.17;;
73158;SDS011;61370;48.594;10.202;2022-11-20T06:31:36;5.15;;;2.70;;
73158;SDS011;61370;48.594;10.202;2022-11-20T06:34:04;6.28;;;2.28;;
73158;SDS011;61370;48.594;10.202;2022-11-20T06:36:32;6.22;;;2.92;;
73158;SDS011;61370;48.594;10.202;2022-11-20T06:38:59;5.68;;;2.63;;
73158;SDS011;61370;48.594;10.202;2022-11-20T06:41:26;8.32;;;3.10;;
73158;SDS011;61370;48.594;10.202;2022-11-20T06:43:54;5.15;;;2.60;;
73158;SDS011;61370;48.594;10.202;2022-11-20T06:46:20;8.13;;;3.10;;
73158;SDS011;61370;48.594;10.202;2022-11-20T06:48:47;7.03;;;3.28;;
73158;SDS011;61370;48.594;10.202;2022-11-20T06:51:14;7.40;;;3.10;;
73158;SDS011;61370;48.594;10.202;2022-11-20T06:53:41;6.85;;;2.97;;
73158;SDS011;61370;48.594;10.202;2022-11-20T06:56:08;6.50;;;2.60;;
73158;SDS011;61370;48.594;10.202;2022-11-20T06:58:35;8.18;;;3.03;;
73158;SDS011;61370;48.594;10.202;2022-11-20T07:01:06;7.00;;;2.92;;
73158;SDS011;61370;48.594;10.202;2022-11-20T07:03:37;6.57;;;3.25;;
73158;SDS011;61370;48.594;10.202;2022-11-20T07:06:04;8.93;;;3.55;;
73158;SDS011;61370;48.594;10.202;2022-11-20T07:08:31;7.30;;;3.38;;
73158;SDS011;61370;48.594;10.202;2022-11-20T07:10:58;6.72;;;3.20;;
73158;SDS011;61370;48.594;10.202;2022-11-20T07:13:32;5.90;;;3.35;;
73158;SDS011;61370;48.594;10.202;2022-11-20T07:15:59;6.80;;;3.05;;
73158;SDS011;61370;48.594;10.202;2022-11-20T07:18:27;8.35;;;3.58;;
73158;SDS011;61370;48.594;10.202;2022-11-20T07:20:53;6.38;;;2.80;;
73158;SDS011;61370;48.594;10.202;2022-11-20T07:23:20;7.38;;;3.40;;
73158;SDS011;61370;48.594;10.202;2022-11-20T07:25:46;8.18;;;3.28;;
73158;SDS011;61370;48.594;10.202;2022-11-20T07:28:13;7.25;;;3.65;;
73158;SDS011;61370;48.594;10.202;2022-11-20T07:30:39;6.88;;;3.55;;
73158;SDS011;61370;48.594;10.202;2022-11-20T07:33:06;6.20;;;3.17;;
73158;SDS011;61370;48.594;10.202;2022-11-20T07:35:32;6.43;;;3.85;;
73158;SDS011;61370;48.594;10.202;2022-11-20T07:37:59;6.57;;;3.70;;
73158;SDS011;61370;48.594;10.202;2022-11-20T07:40:25;7.53;;;3.65;;
73158;SDS011;61370;48.594;10.202;2022-11-20T07:42:53;6.55;;;4.18;;
73158;SDS011;61370;48.594;10.202;2022-11-20T07:45:20;7.28;;;3.90;;
73158;SDS011;61370;48.594;10.202;2022-11-20T07:47:48;6.75;;;3.28;;
73158;SDS011;61370;48.594;10.202;2022-11-20T07:50:15;8.35;;;4.20;;
73158;SDS011;61370;48.594;10.202;2022-11-20T07:52:42;6.80;;;4.38;;
73158;SDS011;61370;48.594;10.202;2022-11-20T07:55:09;5.93;;;3.55;;
73158;SDS011;61370;48.594;10.202;2022-11-20T07:57:36;6.35;;;3.42;;
73158;SDS011;61370;48.594;10.202;2022-11-20T08:00:03;8.48;;;4.47;;
73158;SDS011;61370;48.594;10.202;2022-11-20T08:02:39;6.32;;;3.78;;
73158;SDS011;61370;48.594;10.202;2022-11-20T08:05:06;7.95;;;4.13;;
73158;SDS011;61370;48.594;10.202;2022-11-20T08:07:37;7.97;;;4.32;;
73158;SDS011;61370;48.594;10.202;2022-11-20T08:10:05;6.53;;;3.80;;
73158;SDS011;61370;48.594;10.202;2022-11-20T08:12:32;6.13;;;3.45;;
73158;SDS011;61370;48.594;10.202;2022-11-20T08:15:17;6.40;;;3.47;;
73158;SDS011;61370;48.594;10.202;2022-11-20T08:17:44;7.05;;;3.60;;
73158;SDS011;61370;48.594;10.202;2022-11-20T08:20:10;5.55;;;3.08;;
73158;SDS011;61370;48.594;10.202;2022-11-20T08:22:37;6.95;;;3.50;;
73158;SDS011;61370;48.594;10.202;2022-11-20T08:25:03;7.13;;;3.55;;
73158;SDS011;61370;48.594;10.202;2022-11-20T08:27:31;9.20;;;3.90;;
73158;SDS011;61370;48.594;10.202;2022-11-20T08:29:59;7.40;;;3.33;;
73158;SDS011;61370;48.594;10.202;2022-11-20T08:32:25;8.63;;;3.70;;
73158;SDS011;61370;48.594;10.202;2022-11-20T08:34:52;6.65;;;3.35;;
73158;SDS011;61370;48.594;10.202;2022-11-20T08:37:18;7.93;;;3.53;;
73158;SDS011;61370;48.594;10.202;2022-11-20T08:39:45;7.65;;;3.58;;
73158;SDS011;61370;48.594;10.202;2022-11-20T08:42:13;8.30;;;4.20;;
73158;SDS011;61370;48.594;10.202;2022-11-20T08:44:39;6.15;;;3.42;;
73158;SDS011;61370;48.594;10.202;2022-11-20T08:47:06;6.80;;;3.72;;
73158;SDS011;61370;48.594;10.202;2022-11-20T08:49:32;9.80;;;5.13;;
73158;SDS011;61370;48.594;10.202;2022-11-20T08:51:59;10.82;;;5.97;;
73158;SDS011;61370;48.594;10.202;2022-11-20T08:54:25;7.80;;;4.55;;
73158;SDS011;61370;48.594;10.202;2022-11-20T08:56:52;7.65;;;4.78;;
73158;SDS011;61370;48.594;10.202;2022-11-20T08:59:18;6.65;;;3.35;;
73158;SDS011;61370;48.594;10.202;2022-11-20T09:01:45;6.80;;;3.22;;
73158;SDS011;61370;48.594;10.202;2022-11-20T09:04:11;5.78;;;2.88;;
73158;SDS011;61370;48.594;10.202;2022-11-20T09:06:40;6.00;;;3.10;;
73158;SDS011;61370;48.594;10.202;2022-11-20T09:09:06;6.07;;;3.13;;
73158;SDS011;61370;48.594;10.202;2022-11-20T09:11:34;5.65;;;2.72;;
73158;SDS011;61370;48.594;10.202;2022-11-20T09:14:01;5.03;;;2.33;;
73158;SDS011;61370;48.594;10.202;2022-11-20T09:16:29;4.97;;;2.25;;
73158;SDS011;61370;48.594;10.202;2022-11-20T09:18:55;5.60;;;2.80;;
73158;SDS011;61370;48.594;10.202;2022-11-20T09:21:22;6.85;;;3.10;;
73158;SDS011;61370;48.594;10.202;2022-11-20T09:23:49;5.85;;;2.55;;
73158;SDS011;61370;48.594;10.202;2022-11-20T09:26:16;5.18;;;2.63;;
73158;SDS011;61370;48.594;10.202;2022-11-20T09:28:42;5.95;;;2.50;;
73158;SDS011;61370;48.594;10.202;2022-11-20T09:31:21;4.78;;;2.50;;
73158;SDS011;61370;48.594;10.202;2022-11-20T09:33:49;4.95;;;2.25;;
73158;SDS011;61370;48.594;10.202;2022-11-20T09:36:15;5.97;;;2.67;;
73158;SDS011;61370;48.594;10.202;2022-11-20T09:38:45;5.95;;;3.17;;
73158;SDS011;61370;48.594;10.202;2022-11-20T09:51:59;5.72;;;2.70;;
73158;SDS011;61370;48.594;10.202;2022-11-20T09:54:34;4.30;;;2.42;;
73158;SDS011;61370;48.594;10.202;2022-11-20T09:57:03;6.90;;;2.92;;
73158;SDS011;61370;48.594;10.202;2022-11-20T09:59:41;5.13;;;2.28;;
73158;SDS011;61370;48.594;10.202;2022-11-20T10:04:47;4.18;;;2.13;;
73158;SDS011;61370;48.594;10.202;2022-11-20T10:07:30;4.97;;;2.42;;
73158;SDS011;61370;48.594;10.202;2022-11-20T10:10:02;5.20;;;2.40;;
73158;SDS011;61370;48.594;10.202;2022-11-20T10:26:03;6.07;;;2.55;;
73158;SDS011;61370;48.594;10.202;2022-11-20T10:31:31;5.15;;;2.35;;
73158;SDS011;61370;48.594;10.202;2022-11-20T10:34:03;6.53;;;2.92;;
73158;SDS011;61370;48.594;10.202;2022-11-20T10:36:34;6.40;;;3.08;;
73158;SDS011;61370;48.594;10.202;2022-11-20T10:40:14;6.15;;;3.42;;
73158;SDS011;61370;48.594;10.202;2022-11-20T10:42:07;8.38;;;4.05;;
73158;SDS011;61370;48.594;10.202;2022-11-20T10:44:37;5.00;;;2.67;;
73158;SDS011;61370;48.594;10.202;2022-11-20T10:47:24;5.82;;;3.38;;
73158;SDS011;61370;48.594;10.202;2022-11-20T10:49:52;7.20;;;3.55;;
73158;SDS011;61370;48.594;10.202;2022-11-20T10:52:34;4.75;;;1.98;;
73158;SDS011;61370;48.594;10.202;2022-11-20T10:58:21;4.45;;;2.20;;
73158;SDS011;61370;48.594;10.202;2022-11-20T11:01:13;5.45;;;2.42;;
73158;SDS011;61370;48.594;10.202;2022-11-20T11:03:40;3.65;;;2.08;;
73158;SDS011;61370;48.594;10.202;2022-11-20T11:06:25;3.92;;;2.03;;
73158;SDS011;61370;48.594;10.202;2022-11-20T11:08:53;6.13;;;3.15;;
73158;SDS011;61370;48.594;10.202;2022-11-20T11:11:24;4.68;;;2.38;;
73158;SDS011;61370;48.594;10.202;2022-11-20T11:13:52;4.88;;;2.50;;
73158;SDS011;61370;48.594;10.202;2022-11-20T11:16:20;4.35;;;2.25;;
73158;SDS011;61370;48.594;10.202;2022-11-20T11:18:51;5.30;;;2.00;;
73158;SDS011;61370;48.594;10.202;2022-11-20T11:21:24;3.78;;;1.70;;
73158;SDS011;61370;48.594;10.202;2022-11-20T11:24:14;4.03;;;1.90;;
73158;SDS011;61370;48.594;10.202;2022-11-20T11:27:10;3.38;;;1.58;;
73158;SDS011;61370;48.594;10.202;2022-11-20T11:29:38;3.78;;;1.70;;
73158;SDS011;61370;48.594;10.202;2022-11-20T11:32:06;3.17;;;1.40;;
73158;SDS011;61370;48.594;10.202;2022-11-20T11:34:34;2.60;;;1.33;;
73158;SDS011;61370;48.594;10.202;2022-11-20T11:37:01;2.63;;;1.33;;
73158;SDS011;61370;48.594;10.202;2022-11-20T11:39:29;4.07;;;1.40;;
73158;SDS011;61370;48.594;10.202;2022-11-20T11:41:57;2.80;;;1.25;;
73158;SDS011;61370;48.594;10.202;2022-11-20T11:44:26;5.30;;;1.60;;
73158;SDS011;61370;48.594;10.202;2022-11-20T11:55:47;5.07;;;1.58;;
73158;SDS011;61370;48.594;10.202;2022-11-20T12:07:08;4.57;;;1.80;;
73158;SDS011;61370;48.594;10.202;2022-11-20T12:09:42;5.85;;;2.42;;
73158;SDS011;61370;48.594;10.202;2022-11-20T12:12:23;6.90;;;3.72;;
73158;SDS011;61370;48.594;10.202;2022-11-20T12:14:51;7.03;;;4.07;;
73158;SDS011;61370;48.594;10.202;2022-11-20T12:17:19;6.25;;;3.25;;
73158;SDS011;61370;48.594;10.202;2022-11-20T12:19:46;3.53;;;1.58;;
73158;SDS011;61370;48.594;10.202;2022-11-20T12:25:24;2.03;;;1.05;;
73158;SDS011;61370;48.594;10.202;2022-11-20T12:30:23;1.42;;;0.90;;
73158;SDS011;61370;48.594;10.202;2022-11-20T12:35:47;2.50;;;1.08;;
73158;SDS011;61370;48.594;10.202;2022-11-20T12:47:28;2.53;;;1.10;;
73158;SDS011;61370;48.594;10.202;2022-11-20T12:58:24;4.47;;;1.80;;
73158;SDS011;61370;48.594;10.202;2022-11-20T13:01:16;4.97;;;1.63;;
73158;SDS011;61370;48.594;10.202;2022-11-20T13:07:04;3.15;;;1.30;;
73158;SDS011;61370;48.594;10.202;2022-11-20T13:09:33;3.22;;;1.25;;
73158;SDS011;61370;48.594;10.202;2022-11-20T13:17:59;2.10;;;1.10;;
73158;SDS011;61370;48.594;10.202;2022-11-20T13:20:27;3.05;;;1.65;;
73158;SDS011;61370;48.594;10.202;2022-11-20T13:22:54;3.50;;;1.70;;
73158;SDS011;61370;48.594;10.202;2022-11-20T13:27:50;3.58;;;1.50;;
73158;SDS011;61370;48.594;10.202;2022-11-20T13:30:21;2.72;;;1.20;;
73158;SDS011;61370;48.594;10.202;2022-11-20T13:33:22;3.13;;;1.40;;
73158;SDS011;61370;48.594;10.202;2022-11-20T13:36:03;4.55;;;1.30;;
73158;SDS011;61370;48.594;10.202;2022-11-20T13:38:49;2.40;;;1.10;;
73158;SDS011;61370;48.594;10.202;2022-11-20T13:41:36;4.38;;;1.20;;
73158;SDS011;61370;48.594;10.202;2022-11-20T13:46:39;3.05;;;1.25;;
73158;SDS011;61370;48.594;10.202;2022-11-20T13:59:33;3.35;;;1.25;;
73158;SDS011;61370;48.594;10.202;2022-11-20T14:02:09;3.65;;;1.10;;
73158;SDS011;61370;48.594;10.202;2022-11-20T14:04:38;2.35;;;0.73;;
73158;SDS011;61370;48.594;10.202;2022-11-20T14:07:10;3.63;;;1.50;;
73158;SDS011;61370;48.594;10.202;2022-11-20T14:09:36;3.60;;;1.60;;
73158;SDS011;61370;48.594;10.202;2022-11-20T14:12:03;2.72;;;1.13;;
73158;SDS011;61370;48.594;10.202;2022-11-20T14:14:47;3.40;;;1.20;;
73158;SDS011;61370;48.594;10.202;2022-11-20T14:17:17;3.20;;;1.00;;
73158;SDS011;61370;48.594;10.202;2022-11-20T14:19:48;1.70;;;0.93;;
73158;SDS011;61370;48.594;10.202;2022-11-20T14:22:22;1.88;;;0.90;;
73158;SDS011;61370;48.594;10.202;2022-11-20T14:27:41;3.15;;;1.20;;
73158;SDS011;61370;48.594;10.202;2022-11-20T14:30:15;3.45;;;1.00;;
73158;SDS011;61370;48.594;10.202;2022-11-20T14:32:43;2.80;;;1.13;;
73158;SDS011;61370;48.594;10.202;2022-11-20T14:35:14;3.78;;;1.38;;
73158;SDS011;61370;48.594;10.202;2022-11-20T14:37:47;3.53;;;1.20;;
73158;SDS011;61370;48.594;10.202;2022-11-20T14:40:32;2.80;;;1.15;;
73158;SDS011;61370;48.594;10.202;2022-11-20T14:43:20;2.50;;;1.20;;
73158;SDS011;61370;48.594;10.202;2022-11-20T14:46:10;2.00;;;0.90;;
73158;SDS011;61370;48.594;10.202;2022-11-20T14:48:55;2.53;;;1.00;;
73158;SDS011;61370;48.594;10.202;2022-11-20T14:54:12;1.58;;;0.82;;
73158;SDS011;61370;48.594;10.202;2022-11-20T14:56:42;3.05;;;1.10;;
73158;SDS011;61370;48.594;10.202;2022-11-20T14:59:26;2.10;;;1.08;;
73158;SDS011;61370;48.594;10.202;2022-11-20T15:01:58;2.15;;;0.90;;
73158;SDS011;61370;48.594;10.202;2022-11-20T15:04:25;1.88;;;0.82;;
73158;SDS011;61370;48.594;10.202;2022-11-20T15:06:54;2.50;;;0.93;;
73158;SDS011;61370;48.594;10.202;2022-11-20T15:09:22;2.20;;;1.10;;
73158;SDS011;61370;48.594;10.202;2022-11-20T15:11:52;2.70;;;1.17;;
73158;SDS011;61370;48.594;10.202;2022-11-20T15:14:24;2.30;;;1.00;;
73158;SDS011;61370;48.594;10.202;2022-11-20T15:16:52;2.25;;;1.15;;
73158;SDS011;61370;48.594;10.202;2022-11-20T15:19:23;3.33;;;1.60;;
73158;SDS011;61370;48.594;10.202;2022-11-20T15:21:50;4.10;;;2.00;;
73158;SDS011;61370;48.594;10.202;2022-11-20T15:24:17;3.78;;;2.15;;
73158;SDS011;61370;48.594;10.202;2022-11-20T15:26:44;7.07;;;3.75;;
73158;SDS011;61370;48.594;10.202;2022-11-20T15:29:12;2.75;;;1.45;;
73158;SDS011;61370;48.594;10.202;2022-11-20T15:31:39;4.68;;;1.50;;
73158;SDS011;61370;48.594;10.202;2022-11-20T15:34:09;2.40;;;1.25;;
73158;SDS011;61370;48.594;10.202;2022-11-20T15:36:38;2.90;;;1.00;;
73158;SDS011;61370;48.594;10.202;2022-11-20T15:39:05;3.03;;;1.60;;
73158;SDS011;61370;48.594;10.202;2022-11-20T15:41:36;3.42;;;1.90;;
73158;SDS011;61370;48.594;10.202;2022-11-20T15:44:03;3.60;;;2.10;;
73158;SDS011;61370;48.594;10.202;2022-11-20T15:46:31;4.65;;;2.50;;
73158;SDS011;61370;48.594;10.202;2022-11-20T15:49:04;3.78;;;2.00;;
73158;SDS011;61370;48.594;10.202;2022-11-20T15:51:33;4.38;;;1.95;;
73158;SDS011;61370;48.594;10.202;2022-11-20T15:54:01;5.07;;;1.80;;
73158;SDS011;61370;48.594;10.202;2022-11-20T15:56:31;4.47;;;1.67;;
73158;SDS011;61370;48.594;10.202;2022-11-20T15:58:59;3.10;;;1.40;;
73158;SDS011;61370;48.594;10.202;2022-11-20T16:01:26;3.30;;;1.33;;
73158;SDS011;61370;48.594;10.202;2022-11-20T16:03:52;2.95;;;1.35;;
73158;SDS011;61370;48.594;10.202;2022-11-20T16:06:18;3.47;;;1.25;;
73158;SDS011;61370;48.594;10.202;2022-11-20T16:08:45;2.10;;;1.00;;
73158;SDS011;61370;48.594;10.202;2022-11-20T16:11:12;3.22;;;1.52;;
73158;SDS011;61370;48.594;10.202;2022-11-20T16:13:40;1.90;;;0.80;;
73158;SDS011;61370;48.594;10.202;2022-11-20T16:16:27;2.75;;;1.33;;
73158;SDS011;61370;48.594;10.202;2022-11-20T16:18:56;2.95;;;1.42;;
73158;SDS011;61370;48.594;10.202;2022-11-20T16:21:23;4.47;;;1.83;;
73158;SDS011;61370;48.594;10.202;2022-11-20T16:23:57;4.20;;;2.08;;
73158;SDS011;61370;48.594;10.202;2022-11-20T16:26:24;3.88;;;2.15;;
73158;SDS011;61370;48.594;10.202;2022-11-20T16:28:50;4.35;;;2.20;;
73158;SDS011;61370;48.594;10.202;2022-11-20T16:31:17;3.95;;;1.60;;
73158;SDS011;61370;48.594;10.202;2022-11-20T16:33:51;3.60;;;1.45;;
73158;SDS011;61370;48.594;10.202;2022-11-20T16:36:22;3.03;;;1.42;;
73158;SDS011;61370;48.594;10.202;2022-11-20T16:38:52;3.45;;;1.40;;
73158;SDS011;61370;48.594;10.202;2022-11-20T16:41:19;4.10;;;1.23;;
73158;SDS011;61370;48.594;10.202;2022-11-20T16:43:48;5.05;;;1.90;;
73158;SDS011;61370;48.594;10.202;2022-11-20T16:46:21;4.50;;;1.90;;